sensor_id;sensor_type;location;lat;lon;timestamp;P1;durP1;ratioP1;P2;durP2;ratioP2
69463;SDS011;56665;41.106;16.688;2023-04-07T00:01:50;7.00;;;3.72;;
69463;SDS011;56665;41.106;16.688;2023-04-07T00:04:55;5.80;;;3.30;;
69463;SDS011;56665;41.106;16.688;2023-04-07T00:08:00;7.68;;;3.60;;
69463;SDS011;56665;41.106;16.688;2023-04-07T00:11:04;6.73;;;3.80;;
69463;SDS011;56665;41.106;16.688;2023-04-07T00:14:11;7.30;;;4.13;;
69463;SDS011;56665;41.106;16.688;2023-04-07T00:17:15;7.95;;;4.03;;
69463;SDS011;56665;41.106;16.688;2023-04-07T00:20:18;6.32;;;3.60;;
69463;SDS011;56665;41.106;16.688;2023-04-07T00:23:23;8.18;;;4.38;;
69463;SDS011;56665;41.106;16.688;2023-04-07T00:26:27;9.27;;;4.13;;
69463;SDS011;56665;41.106;16.688;2023-04-07T00:29:33;12.60;;;4.60;;
69463;SDS011;56665;41.106;16.688;2023-04-07T00:32:38;10.00;;;4.75;;
69463;SDS011;56665;41.106;16.688;2023-04-07T00:35:42;8.35;;;4.10;;
69463;SDS011;56665;41.106;16.688;2023-04-07T00:38:45;8.55;;;4.50;;
69463;SDS011;56665;41.106;16.688;2023-04-07T00:41:49;9.20;;;4.10;;
69463;SDS011;56665;41.106;16.688;2023-04-07T00:44:53;7.80;;;4.30;;
69463;SDS011;56665;41.106;16.688;2023-04-07T00:47:57;8.02;;;4.00;;
69463;SDS011;56665;41.106;16.688;2023-04-07T00:51:02;7.95;;;3.55;;
69463;SDS011;56665;41.106;16.688;2023-04-07T00:54:07;6.88;;;3.97;;
69463;SDS011;56665;41.106;16.688;2023-04-07T00:57:13;5.50;;;3.53;;
69463;SDS011;56665;41.106;16.688;2023-04-07T01:00:17;8.30;;;4.00;;
69463;SDS011;56665;41.106;16.688;2023-04-07T01:03:24;8.82;;;3.60;;
69463;SDS011;56665;41.106;16.688;2023-04-07T01:06:37;7.78;;;3.70;;
69463;SDS011;56665;41.106;16.688;2023-04-07T01:09:52;6.78;;;4.15;;
69463;SDS011;56665;41.106;16.688;2023-04-07T01:16:26;8.02;;;4.13;;
69463;SDS011;56665;41.106;16.688;2023-04-07T01:19:35;8.52;;;3.72;;
69463;SDS011;56665;41.106;16.688;2023-04-07T01:22:44;7.50;;;4.13;;
69463;SDS011;56665;41.106;16.688;2023-04-07T01:32:38;8.82;;;4.10;;
69463;SDS011;56665;41.106;16.688;2023-04-07T01:35:45;6.80;;;3.92;;
69463;SDS011;56665;41.106;16.688;2023-04-07T01:38:50;7.75;;;4.10;;
69463;SDS011;56665;41.106;16.688;2023-04-07T01:41:57;7.40;;;4.10;;
69463;SDS011;56665;41.106;16.688;2023-04-07T01:45:04;9.50;;;3.87;;
69463;SDS011;56665;41.106;16.688;2023-04-07T01:48:09;9.68;;;4.10;;
69463;SDS011;56665;41.106;16.688;2023-04-07T01:51:16;6.28;;;3.55;;
69463;SDS011;56665;41.106;16.688;2023-04-07T01:54:22;7.80;;;3.75;;
69463;SDS011;56665;41.106;16.688;2023-04-07T01:57:28;6.47;;;3.80;;
69463;SDS011;56665;41.106;16.688;2023-04-07T02:00:38;6.77;;;3.53;;
69463;SDS011;56665;41.106;16.688;2023-04-07T02:03:53;8.82;;;3.70;;
69463;SDS011;56665;41.106;16.688;2023-04-07T02:07:02;8.02;;;3.90;;
69463;SDS011;56665;41.106;16.688;2023-04-07T02:10:16;7.38;;;3.83;;
69463;SDS011;56665;41.106;16.688;2023-04-07T02:13:27;8.57;;;4.90;;
69463;SDS011;56665;41.106;16.688;2023-04-07T02:16:35;8.53;;;4.43;;
69463;SDS011;56665;41.106;16.688;2023-04-07T02:19:40;8.52;;;4.28;;
69463;SDS011;56665;41.106;16.688;2023-04-07T02:22:46;10.93;;;4.18;;
69463;SDS011;56665;41.106;16.688;2023-04-07T02:25:50;8.18;;;4.10;;
69463;SDS011;56665;41.106;16.688;2023-04-07T02:28:57;10.13;;;4.00;;
69463;SDS011;56665;41.106;16.688;2023-04-07T02:32:01;8.33;;;3.83;;
69463;SDS011;56665;41.106;16.688;2023-04-07T02:35:06;6.63;;;3.70;;
69463;SDS011;56665;41.106;16.688;2023-04-07T02:38:11;7.65;;;3.72;;
69463;SDS011;56665;41.106;16.688;2023-04-07T02:41:15;8.48;;;4.10;;
69463;SDS011;56665;41.106;16.688;2023-04-07T02:44:19;8.95;;;4.18;;
69463;SDS011;56665;41.106;16.688;2023-04-07T02:47:26;8.83;;;4.07;;
69463;SDS011;56665;41.106;16.688;2023-04-07T02:50:30;7.72;;;3.95;;
69463;SDS011;56665;41.106;16.688;2023-04-07T02:53:33;9.30;;;4.40;;
69463;SDS011;56665;41.106;16.688;2023-04-07T02:56:37;6.68;;;3.88;;
69463;SDS011;56665;41.106;16.688;2023-04-07T02:59:41;9.32;;;4.38;;
69463;SDS011;56665;41.106;16.688;2023-04-07T03:02:47;10.57;;;4.40;;
69463;SDS011;56665;41.106;16.688;2023-04-07T03:05:52;8.80;;;4.20;;
69463;SDS011;56665;41.106;16.688;2023-04-07T03:08:56;10.85;;;4.13;;
69463;SDS011;56665;41.106;16.688;2023-04-07T03:12:00;8.43;;;4.20;;
69463;SDS011;56665;41.106;16.688;2023-04-07T03:15:09;7.93;;;3.90;;
69463;SDS011;56665;41.106;16.688;2023-04-07T03:18:14;6.30;;;3.93;;
69463;SDS011;56665;41.106;16.688;2023-04-07T03:21:20;7.78;;;4.07;;
69463;SDS011;56665;41.106;16.688;2023-04-07T03:24:25;8.13;;;4.43;;
69463;SDS011;56665;41.106;16.688;2023-04-07T03:27:29;9.05;;;4.13;;
69463;SDS011;56665;41.106;16.688;2023-04-07T03:30:34;8.02;;;4.90;;
69463;SDS011;56665;41.106;16.688;2023-04-07T03:33:38;9.07;;;4.27;;
69463;SDS011;56665;41.106;16.688;2023-04-07T03:36:42;9.20;;;4.45;;
69463;SDS011;56665;41.106;16.688;2023-04-07T03:39:46;9.18;;;4.70;;
69463;SDS011;56665;41.106;16.688;2023-04-07T03:43:11;8.18;;;4.05;;
69463;SDS011;56665;41.106;16.688;2023-04-07T03:46:18;7.25;;;4.40;;
69463;SDS011;56665;41.106;16.688;2023-04-07T03:49:23;9.00;;;4.60;;
69463;SDS011;56665;41.106;16.688;2023-04-07T03:52:27;11.45;;;5.13;;
69463;SDS011;56665;41.106;16.688;2023-04-07T03:55:39;7.38;;;4.80;;
69463;SDS011;56665;41.106;16.688;2023-04-07T03:58:51;9.75;;;4.57;;
69463;SDS011;56665;41.106;16.688;2023-04-07T04:02:04;9.68;;;5.00;;
69463;SDS011;56665;41.106;16.688;2023-04-07T04:05:08;9.67;;;4.77;;
69463;SDS011;56665;41.106;16.688;2023-04-07T04:08:13;8.23;;;4.75;;
69463;SDS011;56665;41.106;16.688;2023-04-07T04:11:20;8.93;;;4.55;;
69463;SDS011;56665;41.106;16.688;2023-04-07T04:14:33;9.95;;;4.68;;
69463;SDS011;56665;41.106;16.688;2023-04-07T04:17:40;8.98;;;5.05;;
69463;SDS011;56665;41.106;16.688;2023-04-07T04:20:47;9.20;;;5.40;;
69463;SDS011;56665;41.106;16.688;2023-04-07T04:23:51;10.68;;;5.10;;
69463;SDS011;56665;41.106;16.688;2023-04-07T04:26:55;9.32;;;5.10;;
69463;SDS011;56665;41.106;16.688;2023-04-07T04:30:00;10.27;;;5.97;;
69463;SDS011;56665;41.106;16.688;2023-04-07T04:33:13;14.90;;;6.95;;
69463;SDS011;56665;41.106;16.688;2023-04-07T04:36:29;25.90;;;10.30;;
69463;SDS011;56665;41.106;16.688;2023-04-07T04:39:38;61.45;;;24.33;;
69463;SDS011;56665;41.106;16.688;2023-04-07T04:42:43;73.03;;;29.60;;
69463;SDS011;56665;41.106;16.688;2023-04-07T04:45:48;71.80;;;29.98;;
69463;SDS011;56665;41.106;16.688;2023-04-07T04:48:55;62.42;;;27.20;;
69463;SDS011;56665;41.106;16.688;2023-04-07T04:52:00;48.80;;;23.13;;
69463;SDS011;56665;41.106;16.688;2023-04-07T04:55:12;31.02;;;16.23;;
69463;SDS011;56665;41.106;16.688;2023-04-07T04:58:17;25.67;;;13.38;;
69463;SDS011;56665;41.106;16.688;2023-04-07T05:01:24;20.27;;;11.65;;
69463;SDS011;56665;41.106;16.688;2023-04-07T05:04:34;22.58;;;11.55;;
69463;SDS011;56665;41.106;16.688;2023-04-07T05:07:59;25.80;;;13.03;;
69463;SDS011;56665;41.106;16.688;2023-04-07T05:11:12;20.38;;;12.57;;
69463;SDS011;56665;41.106;16.688;2023-04-07T05:14:16;23.27;;;12.32;;
69463;SDS011;56665;41.106;16.688;2023-04-07T05:17:28;20.52;;;11.38;;
69463;SDS011;56665;41.106;16.688;2023-04-07T05:20:36;20.88;;;11.32;;
69463;SDS011;56665;41.106;16.688;2023-04-07T05:23:40;16.87;;;9.70;;
69463;SDS011;56665;41.106;16.688;2023-04-07T05:26:47;21.20;;;10.65;;
69463;SDS011;56665;41.106;16.688;2023-04-07T05:29:51;21.75;;;11.57;;
69463;SDS011;56665;41.106;16.688;2023-04-07T05:33:02;19.08;;;10.95;;
69463;SDS011;56665;41.106;16.688;2023-04-07T05:36:32;20.25;;;10.15;;
69463;SDS011;56665;41.106;16.688;2023-04-07T05:39:38;22.10;;;10.33;;
69463;SDS011;56665;41.106;16.688;2023-04-07T05:42:45;19.42;;;10.63;;
69463;SDS011;56665;41.106;16.688;2023-04-07T05:45:49;17.27;;;9.63;;
69463;SDS011;56665;41.106;16.688;2023-04-07T05:48:54;22.33;;;10.52;;
69463;SDS011;56665;41.106;16.688;2023-04-07T05:51:58;17.80;;;9.80;;
69463;SDS011;56665;41.106;16.688;2023-04-07T05:55:03;17.60;;;9.87;;
69463;SDS011;56665;41.106;16.688;2023-04-07T05:58:07;17.02;;;10.25;;
69463;SDS011;56665;41.106;16.688;2023-04-07T06:01:12;17.38;;;8.98;;
69463;SDS011;56665;41.106;16.688;2023-04-07T06:04:18;14.77;;;8.15;;
69463;SDS011;56665;41.106;16.688;2023-04-07T06:07:25;12.15;;;6.60;;
69463;SDS011;56665;41.106;16.688;2023-04-07T06:10:30;9.80;;;6.00;;
69463;SDS011;56665;41.106;16.688;2023-04-07T06:13:33;10.20;;;5.32;;
69463;SDS011;56665;41.106;16.688;2023-04-07T06:16:37;9.00;;;5.53;;
69463;SDS011;56665;41.106;16.688;2023-04-07T06:19:41;8.93;;;6.15;;
69463;SDS011;56665;41.106;16.688;2023-04-07T06:22:45;10.90;;;5.82;;
69463;SDS011;56665;41.106;16.688;2023-04-07T06:25:49;10.93;;;6.50;;
69463;SDS011;56665;41.106;16.688;2023-04-07T06:28:55;14.60;;;7.00;;
69463;SDS011;56665;41.106;16.688;2023-04-07T06:32:02;11.05;;;6.35;;
69463;SDS011;56665;41.106;16.688;2023-04-07T06:35:09;10.95;;;6.32;;
69463;SDS011;56665;41.106;16.688;2023-04-07T06:38:14;11.15;;;5.40;;
69463;SDS011;56665;41.106;16.688;2023-04-07T06:41:18;8.53;;;5.50;;
69463;SDS011;56665;41.106;16.688;2023-04-07T06:44:22;9.43;;;5.25;;
69463;SDS011;56665;41.106;16.688;2023-04-07T06:47:27;10.43;;;5.68;;
69463;SDS011;56665;41.106;16.688;2023-04-07T06:50:32;12.23;;;5.97;;
69463;SDS011;56665;41.106;16.688;2023-04-07T06:53:36;9.02;;;6.10;;
69463;SDS011;56665;41.106;16.688;2023-04-07T06:56:40;10.43;;;5.93;;
69463;SDS011;56665;41.106;16.688;2023-04-07T06:59:45;10.63;;;7.28;;
69463;SDS011;56665;41.106;16.688;2023-04-07T07:02:51;8.15;;;5.70;;
69463;SDS011;56665;41.106;16.688;2023-04-07T07:05:55;12.23;;;6.05;;
69463;SDS011;56665;41.106;16.688;2023-04-07T07:09:05;9.10;;;5.93;;
69463;SDS011;56665;41.106;16.688;2023-04-07T07:12:10;9.47;;;5.47;;
69463;SDS011;56665;41.106;16.688;2023-04-07T07:15:14;9.73;;;5.60;;
69463;SDS011;56665;41.106;16.688;2023-04-07T07:18:19;11.85;;;6.25;;
69463;SDS011;56665;41.106;16.688;2023-04-07T07:21:23;11.07;;;6.57;;
69463;SDS011;56665;41.106;16.688;2023-04-07T07:24:26;10.68;;;5.40;;
69463;SDS011;56665;41.106;16.688;2023-04-07T07:27:31;9.40;;;5.03;;
69463;SDS011;56665;41.106;16.688;2023-04-07T07:30:35;10.77;;;5.00;;
69463;SDS011;56665;41.106;16.688;2023-04-07T07:33:41;7.13;;;4.75;;
69463;SDS011;56665;41.106;16.688;2023-04-07T07:36:47;6.90;;;4.45;;
69463;SDS011;56665;41.106;16.688;2023-04-07T07:39:51;7.72;;;4.70;;
69463;SDS011;56665;41.106;16.688;2023-04-07T07:42:55;7.63;;;4.00;;
69463;SDS011;56665;41.106;16.688;2023-04-07T07:46:00;8.00;;;5.00;;
69463;SDS011;56665;41.106;16.688;2023-04-07T07:49:03;9.25;;;4.78;;
69463;SDS011;56665;41.106;16.688;2023-04-07T07:52:08;6.63;;;4.30;;
69463;SDS011;56665;41.106;16.688;2023-04-07T07:55:12;8.68;;;4.07;;
69463;SDS011;56665;41.106;16.688;2023-04-07T07:58:16;6.20;;;4.47;;
69463;SDS011;56665;41.106;16.688;2023-04-07T08:01:20;5.70;;;3.88;;
69463;SDS011;56665;41.106;16.688;2023-04-07T08:04:24;6.70;;;4.18;;
69463;SDS011;56665;41.106;16.688;2023-04-07T08:07:28;9.43;;;3.90;;
69463;SDS011;56665;41.106;16.688;2023-04-07T08:10:32;4.82;;;3.80;;
69463;SDS011;56665;41.106;16.688;2023-04-07T08:13:36;8.20;;;4.20;;
69463;SDS011;56665;41.106;16.688;2023-04-07T08:16:40;5.85;;;3.65;;
69463;SDS011;56665;41.106;16.688;2023-04-07T08:19:43;5.18;;;3.40;;
69463;SDS011;56665;41.106;16.688;2023-04-07T08:22:47;5.47;;;3.55;;
69463;SDS011;56665;41.106;16.688;2023-04-07T08:25:51;7.72;;;3.95;;
69463;SDS011;56665;41.106;16.688;2023-04-07T08:28:55;5.10;;;3.78;;
69463;SDS011;56665;41.106;16.688;2023-04-07T08:31:59;9.18;;;4.20;;
69463;SDS011;56665;41.106;16.688;2023-04-07T08:35:04;6.32;;;3.67;;
69463;SDS011;56665;41.106;16.688;2023-04-07T08:38:08;5.75;;;3.38;;
69463;SDS011;56665;41.106;16.688;2023-04-07T08:41:12;6.68;;;3.60;;
69463;SDS011;56665;41.106;16.688;2023-04-07T08:44:20;6.18;;;3.67;;
69463;SDS011;56665;41.106;16.688;2023-04-07T08:47:25;5.40;;;3.65;;
69463;SDS011;56665;41.106;16.688;2023-04-07T08:50:32;6.22;;;4.07;;
69463;SDS011;56665;41.106;16.688;2023-04-07T08:53:40;5.15;;;3.53;;
69463;SDS011;56665;41.106;16.688;2023-04-07T08:56:50;4.93;;;3.33;;
69463;SDS011;56665;41.106;16.688;2023-04-07T08:59:56;4.65;;;3.50;;
69463;SDS011;56665;41.106;16.688;2023-04-07T09:03:04;6.85;;;3.13;;
69463;SDS011;56665;41.106;16.688;2023-04-07T09:06:08;5.80;;;3.17;;
69463;SDS011;56665;41.106;16.688;2023-04-07T09:09:13;5.95;;;4.10;;
69463;SDS011;56665;41.106;16.688;2023-04-07T09:12:18;6.47;;;3.42;;
69463;SDS011;56665;41.106;16.688;2023-04-07T09:15:21;6.38;;;3.15;;
69463;SDS011;56665;41.106;16.688;2023-04-07T09:18:26;7.88;;;3.38;;
69463;SDS011;56665;41.106;16.688;2023-04-07T09:21:49;5.95;;;3.13;;
69463;SDS011;56665;41.106;16.688;2023-04-07T09:25:07;6.68;;;3.70;;
69463;SDS011;56665;41.106;16.688;2023-04-07T09:28:21;5.18;;;3.03;;
69463;SDS011;56665;41.106;16.688;2023-04-07T09:34:57;5.43;;;3.20;;
69463;SDS011;56665;41.106;16.688;2023-04-07T09:41:13;5.10;;;3.25;;
69463;SDS011;56665;41.106;16.688;2023-04-07T09:44:18;4.43;;;3.08;;
69463;SDS011;56665;41.106;16.688;2023-04-07T09:47:27;7.70;;;3.22;;
69463;SDS011;56665;41.106;16.688;2023-04-07T09:50:32;5.45;;;3.65;;
69463;SDS011;56665;41.106;16.688;2023-04-07T09:53:44;5.18;;;3.30;;
69463;SDS011;56665;41.106;16.688;2023-04-07T09:56:50;6.30;;;3.53;;
69463;SDS011;56665;41.106;16.688;2023-04-07T09:59:54;6.85;;;3.70;;
69463;SDS011;56665;41.106;16.688;2023-04-07T10:03:00;6.13;;;3.50;;
69463;SDS011;56665;41.106;16.688;2023-04-07T10:06:05;4.63;;;2.92;;
69463;SDS011;56665;41.106;16.688;2023-04-07T10:09:10;4.72;;;3.03;;
69463;SDS011;56665;41.106;16.688;2023-04-07T10:12:17;5.72;;;2.95;;
69463;SDS011;56665;41.106;16.688;2023-04-07T10:15:21;5.00;;;3.90;;
69463;SDS011;56665;41.106;16.688;2023-04-07T10:18:27;5.90;;;3.55;;
69463;SDS011;56665;41.106;16.688;2023-04-07T10:21:34;5.97;;;3.50;;
69463;SDS011;56665;41.106;16.688;2023-04-07T10:27:59;5.78;;;3.67;;
69463;SDS011;56665;41.106;16.688;2023-04-07T10:31:08;4.65;;;3.65;;
69463;SDS011;56665;41.106;16.688;2023-04-07T10:34:13;4.90;;;3.40;;
69463;SDS011;56665;41.106;16.688;2023-04-07T10:37:17;4.80;;;3.30;;
69463;SDS011;56665;41.106;16.688;2023-04-07T10:43:36;6.80;;;3.85;;
69463;SDS011;56665;41.106;16.688;2023-04-07T10:53:20;5.43;;;3.90;;
69463;SDS011;56665;41.106;16.688;2023-04-07T10:56:25;7.05;;;3.80;;
69463;SDS011;56665;41.106;16.688;2023-04-07T10:59:29;9.57;;;4.50;;
69463;SDS011;56665;41.106;16.688;2023-04-07T11:02:33;7.35;;;4.50;;
69463;SDS011;56665;41.106;16.688;2023-04-07T11:05:40;6.03;;;3.88;;
69463;SDS011;56665;41.106;16.688;2023-04-07T11:08:52;4.93;;;3.33;;
69463;SDS011;56665;41.106;16.688;2023-04-07T11:11:56;5.40;;;3.50;;
69463;SDS011;56665;41.106;16.688;2023-04-07T11:15:15;5.57;;;3.83;;
69463;SDS011;56665;41.106;16.688;2023-04-07T11:18:21;8.27;;;5.32;;
69463;SDS011;56665;41.106;16.688;2023-04-07T11:21:27;5.50;;;4.10;;
69463;SDS011;56665;41.106;16.688;2023-04-07T11:27:43;7.00;;;4.65;;
69463;SDS011;56665;41.106;16.688;2023-04-07T11:30:50;6.90;;;4.30;;
69463;SDS011;56665;41.106;16.688;2023-04-07T11:33:56;8.82;;;4.72;;
69463;SDS011;56665;41.106;16.688;2023-04-07T11:37:20;7.47;;;4.40;;
69463;SDS011;56665;41.106;16.688;2023-04-07T11:40:34;6.27;;;4.90;;
69463;SDS011;56665;41.106;16.688;2023-04-07T11:43:39;7.18;;;4.40;;
69463;SDS011;56665;41.106;16.688;2023-04-07T11:46:57;8.35;;;4.10;;
69463;SDS011;56665;41.106;16.688;2023-04-07T11:50:03;7.32;;;4.13;;
69463;SDS011;56665;41.106;16.688;2023-04-07T11:53:07;5.95;;;3.88;;
69463;SDS011;56665;41.106;16.688;2023-04-07T11:56:12;5.90;;;3.83;;
69463;SDS011;56665;41.106;16.688;2023-04-07T11:59:22;9.50;;;3.75;;
69463;SDS011;56665;41.106;16.688;2023-04-07T12:02:30;9.45;;;4.40;;
69463;SDS011;56665;41.106;16.688;2023-04-07T12:05:42;7.13;;;4.45;;
69463;SDS011;56665;41.106;16.688;2023-04-07T12:08:48;5.20;;;3.67;;
69463;SDS011;56665;41.106;16.688;2023-04-07T12:11:52;7.78;;;3.85;;
69463;SDS011;56665;41.106;16.688;2023-04-07T12:14:55;8.23;;;3.85;;
69463;SDS011;56665;41.106;16.688;2023-04-07T12:17:59;6.53;;;4.07;;
69463;SDS011;56665;41.106;16.688;2023-04-07T12:21:03;6.10;;;4.20;;
69463;SDS011;56665;41.106;16.688;2023-04-07T12:24:07;7.28;;;4.07;;
69463;SDS011;56665;41.106;16.688;2023-04-07T12:27:11;7.78;;;3.75;;
69463;SDS011;56665;41.106;16.688;2023-04-07T12:30:15;6.53;;;3.35;;
69463;SDS011;56665;41.106;16.688;2023-04-07T12:33:20;6.50;;;4.15;;
69463;SDS011;56665;41.106;16.688;2023-04-07T12:36:24;5.85;;;4.07;;
69463;SDS011;56665;41.106;16.688;2023-04-07T12:39:31;6.87;;;4.10;;
69463;SDS011;56665;41.106;16.688;2023-04-07T12:42:36;6.65;;;3.60;;
69463;SDS011;56665;41.106;16.688;2023-04-07T12:45:41;5.53;;;3.83;;
69463;SDS011;56665;41.106;16.688;2023-04-07T12:48:45;6.50;;;3.80;;
69463;SDS011;56665;41.106;16.688;2023-04-07T12:51:49;6.35;;;4.03;;
69463;SDS011;56665;41.106;16.688;2023-04-07T12:54:54;6.33;;;4.10;;
69463;SDS011;56665;41.106;16.688;2023-04-07T12:57:59;6.22;;;3.58;;
69463;SDS011;56665;41.106;16.688;2023-04-07T13:01:03;6.15;;;4.00;;
69463;SDS011;56665;41.106;16.688;2023-04-07T13:04:07;6.15;;;3.92;;
69463;SDS011;56665;41.106;16.688;2023-04-07T13:07:11;5.40;;;3.75;;
69463;SDS011;56665;41.106;16.688;2023-04-07T13:10:15;10.00;;;6.43;;
69463;SDS011;56665;41.106;16.688;2023-04-07T13:13:19;10.75;;;4.75;;
69463;SDS011;56665;41.106;16.688;2023-04-07T13:16:23;7.57;;;4.97;;
69463;SDS011;56665;41.106;16.688;2023-04-07T13:19:28;6.03;;;4.20;;
69463;SDS011;56665;41.106;16.688;2023-04-07T13:22:32;6.15;;;3.88;;
69463;SDS011;56665;41.106;16.688;2023-04-07T13:25:36;5.73;;;3.77;;
69463;SDS011;56665;41.106;16.688;2023-04-07T13:28:40;6.85;;;3.90;;
69463;SDS011;56665;41.106;16.688;2023-04-07T13:31:45;7.50;;;3.92;;
69463;SDS011;56665;41.106;16.688;2023-04-07T13:34:49;5.65;;;3.47;;
69463;SDS011;56665;41.106;16.688;2023-04-07T13:37:53;6.28;;;3.80;;
69463;SDS011;56665;41.106;16.688;2023-04-07T13:40:56;5.30;;;3.50;;
69463;SDS011;56665;41.106;16.688;2023-04-07T13:44:01;6.15;;;3.58;;
69463;SDS011;56665;41.106;16.688;2023-04-07T13:47:05;7.13;;;3.88;;
69463;SDS011;56665;41.106;16.688;2023-04-07T13:50:09;6.13;;;3.90;;
69463;SDS011;56665;41.106;16.688;2023-04-07T13:53:14;7.45;;;3.80;;
69463;SDS011;56665;41.106;16.688;2023-04-07T13:56:19;6.33;;;3.70;;
69463;SDS011;56665;41.106;16.688;2023-04-07T13:59:24;7.63;;;3.83;;
69463;SDS011;56665;41.106;16.688;2023-04-07T14:02:28;6.13;;;3.35;;
69463;SDS011;56665;41.106;16.688;2023-04-07T14:05:32;7.32;;;3.72;;
69463;SDS011;56665;41.106;16.688;2023-04-07T14:08:37;6.95;;;4.20;;
69463;SDS011;56665;41.106;16.688;2023-04-07T14:11:41;6.70;;;3.47;;
69463;SDS011;56665;41.106;16.688;2023-04-07T14:14:45;6.78;;;3.88;;
69463;SDS011;56665;41.106;16.688;2023-04-07T14:17:49;5.50;;;3.50;;
69463;SDS011;56665;41.106;16.688;2023-04-07T14:20:53;9.23;;;3.75;;
69463;SDS011;56665;41.106;16.688;2023-04-07T14:23:56;11.63;;;4.28;;
69463;SDS011;56665;41.106;16.688;2023-04-07T14:27:00;8.00;;;3.70;;
69463;SDS011;56665;41.106;16.688;2023-04-07T14:30:06;5.97;;;3.67;;
69463;SDS011;56665;41.106;16.688;2023-04-07T14:33:11;6.18;;;3.65;;
69463;SDS011;56665;41.106;16.688;2023-04-07T14:36:14;7.18;;;3.40;;
69463;SDS011;56665;41.106;16.688;2023-04-07T14:39:21;6.47;;;3.13;;
69463;SDS011;56665;41.106;16.688;2023-04-07T14:42:26;4.47;;;3.07;;
69463;SDS011;56665;41.106;16.688;2023-04-07T14:45:31;5.68;;;3.38;;
69463;SDS011;56665;41.106;16.688;2023-04-07T14:48:36;6.40;;;3.60;;
69463;SDS011;56665;41.106;16.688;2023-04-07T14:51:39;5.45;;;3.28;;
69463;SDS011;56665;41.106;16.688;2023-04-07T14:54:43;7.05;;;3.50;;
69463;SDS011;56665;41.106;16.688;2023-04-07T14:57:47;5.07;;;3.47;;
69463;SDS011;56665;41.106;16.688;2023-04-07T15:00:51;6.53;;;3.80;;
69463;SDS011;56665;41.106;16.688;2023-04-07T15:03:55;7.82;;;3.45;;
69463;SDS011;56665;41.106;16.688;2023-04-07T15:07:00;8.55;;;3.47;;
69463;SDS011;56665;41.106;16.688;2023-04-07T15:10:04;7.90;;;3.90;;
69463;SDS011;56665;41.106;16.688;2023-04-07T15:13:08;11.80;;;3.37;;
69463;SDS011;56665;41.106;16.688;2023-04-07T15:16:12;6.72;;;3.13;;
69463;SDS011;56665;41.106;16.688;2023-04-07T15:19:16;9.07;;;3.90;;
69463;SDS011;56665;41.106;16.688;2023-04-07T15:22:20;11.55;;;4.72;;
69463;SDS011;56665;41.106;16.688;2023-04-07T15:25:24;11.77;;;4.25;;
69463;SDS011;56665;41.106;16.688;2023-04-07T15:28:27;9.60;;;4.43;;
69463;SDS011;56665;41.106;16.688;2023-04-07T15:31:31;7.75;;;3.55;;
69463;SDS011;56665;41.106;16.688;2023-04-07T15:34:35;6.70;;;3.80;;
69463;SDS011;56665;41.106;16.688;2023-04-07T15:37:40;8.05;;;4.00;;
69463;SDS011;56665;41.106;16.688;2023-04-07T15:40:44;6.65;;;3.85;;
69463;SDS011;56665;41.106;16.688;2023-04-07T15:43:47;6.17;;;3.87;;
69463;SDS011;56665;41.106;16.688;2023-04-07T15:46:52;6.97;;;3.80;;
69463;SDS011;56665;41.106;16.688;2023-04-07T15:49:56;6.38;;;3.53;;
69463;SDS011;56665;41.106;16.688;2023-04-07T15:52:59;7.93;;;4.00;;
69463;SDS011;56665;41.106;16.688;2023-04-07T15:56:03;7.35;;;3.90;;
69463;SDS011;56665;41.106;16.688;2023-04-07T15:59:07;7.57;;;4.23;;
69463;SDS011;56665;41.106;16.688;2023-04-07T16:02:11;6.80;;;4.65;;
69463;SDS011;56665;41.106;16.688;2023-04-07T16:05:14;6.13;;;3.95;;
69463;SDS011;56665;41.106;16.688;2023-04-07T16:08:18;7.15;;;4.28;;
69463;SDS011;56665;41.106;16.688;2023-04-07T16:11:22;7.22;;;3.72;;
69463;SDS011;56665;41.106;16.688;2023-04-07T16:14:26;7.33;;;4.40;;
69463;SDS011;56665;41.106;16.688;2023-04-07T16:17:31;7.70;;;5.00;;
69463;SDS011;56665;41.106;16.688;2023-04-07T16:20:36;9.10;;;4.68;;
69463;SDS011;56665;41.106;16.688;2023-04-07T16:23:39;8.57;;;4.82;;
69463;SDS011;56665;41.106;16.688;2023-04-07T16:26:43;6.82;;;4.55;;
69463;SDS011;56665;41.106;16.688;2023-04-07T16:29:52;8.87;;;5.30;;
69463;SDS011;56665;41.106;16.688;2023-04-07T16:32:56;8.43;;;5.20;;
69463;SDS011;56665;41.106;16.688;2023-04-07T16:36:01;10.07;;;5.57;;
69463;SDS011;56665;41.106;16.688;2023-04-07T16:39:05;7.82;;;5.10;;
69463;SDS011;56665;41.106;16.688;2023-04-07T16:42:09;8.40;;;5.30;;
69463;SDS011;56665;41.106;16.688;2023-04-07T16:45:13;10.50;;;5.93;;
69463;SDS011;56665;41.106;16.688;2023-04-07T16:48:17;10.25;;;5.22;;
69463;SDS011;56665;41.106;16.688;2023-04-07T16:51:21;10.60;;;5.30;;
69463;SDS011;56665;41.106;16.688;2023-04-07T16:54:27;7.93;;;5.30;;
69463;SDS011;56665;41.106;16.688;2023-04-07T16:57:31;7.88;;;5.00;;
69463;SDS011;56665;41.106;16.688;2023-04-07T17:00:34;9.80;;;5.10;;
69463;SDS011;56665;41.106;16.688;2023-04-07T17:03:38;10.20;;;5.35;;
69463;SDS011;56665;41.106;16.688;2023-04-07T17:06:42;11.15;;;6.03;;
69463;SDS011;56665;41.106;16.688;2023-04-07T17:09:46;13.07;;;7.13;;
69463;SDS011;56665;41.106;16.688;2023-04-07T17:12:50;14.23;;;8.23;;
69463;SDS011;56665;41.106;16.688;2023-04-07T17:15:58;13.80;;;7.97;;
69463;SDS011;56665;41.106;16.688;2023-04-07T17:19:02;12.68;;;8.10;;
69463;SDS011;56665;41.106;16.688;2023-04-07T17:22:06;11.05;;;8.13;;
69463;SDS011;56665;41.106;16.688;2023-04-07T17:25:10;12.55;;;9.15;;
69463;SDS011;56665;41.106;16.688;2023-04-07T17:28:13;14.48;;;9.02;;
69463;SDS011;56665;41.106;16.688;2023-04-07T17:31:17;10.57;;;5.50;;
69463;SDS011;56665;41.106;16.688;2023-04-07T17:34:21;9.98;;;5.57;;
69463;SDS011;56665;41.106;16.688;2023-04-07T17:37:25;14.93;;;7.22;;
69463;SDS011;56665;41.106;16.688;2023-04-07T17:40:29;11.60;;;7.28;;
69463;SDS011;56665;41.106;16.688;2023-04-07T17:43:33;12.25;;;7.85;;
69463;SDS011;56665;41.106;16.688;2023-04-07T17:46:36;11.80;;;7.33;;
69463;SDS011;56665;41.106;16.688;2023-04-07T17:49:40;15.70;;;9.05;;
69463;SDS011;56665;41.106;16.688;2023-04-07T17:52:44;15.95;;;7.97;;
69463;SDS011;56665;41.106;16.688;2023-04-07T17:55:48;13.73;;;8.13;;
69463;SDS011;56665;41.106;16.688;2023-04-07T17:58:52;14.35;;;8.00;;
69463;SDS011;56665;41.106;16.688;2023-04-07T18:01:56;12.37;;;9.33;;
69463;SDS011;56665;41.106;16.688;2023-04-07T18:05:00;19.02;;;12.80;;
69463;SDS011;56665;41.106;16.688;2023-04-07T18:08:04;29.48;;;16.63;;
69463;SDS011;56665;41.106;16.688;2023-04-07T18:11:08;33.08;;;17.65;;
69463;SDS011;56665;41.106;16.688;2023-04-07T18:14:11;35.72;;;20.25;;
69463;SDS011;56665;41.106;16.688;2023-04-07T18:17:15;23.07;;;14.60;;
69463;SDS011;56665;41.106;16.688;2023-04-07T18:20:19;26.85;;;14.85;;
69463;SDS011;56665;41.106;16.688;2023-04-07T18:23:23;46.25;;;22.27;;
69463;SDS011;56665;41.106;16.688;2023-04-07T18:26:27;29.55;;;17.33;;
69463;SDS011;56665;41.106;16.688;2023-04-07T18:29:31;18.83;;;11.15;;
69463;SDS011;56665;41.106;16.688;2023-04-07T18:32:35;19.27;;;11.67;;
69463;SDS011;56665;41.106;16.688;2023-04-07T18:35:39;25.95;;;14.45;;
69463;SDS011;56665;41.106;16.688;2023-04-07T18:38:43;28.85;;;15.02;;
69463;SDS011;56665;41.106;16.688;2023-04-07T18:41:46;18.60;;;11.10;;
69463;SDS011;56665;41.106;16.688;2023-04-07T18:44:51;14.98;;;9.30;;
69463;SDS011;56665;41.106;16.688;2023-04-07T18:47:54;18.70;;;8.97;;